Terminal Aerodrome Forecast
Issued by NWS

Home | Current Version | Previous Version | Text Only | Print | Product List | Glossary On
Versions: 1 2 3 4 5 6 7 8 9 10 11 12 13 14 15 16
000
FTUS43 KAPX 252324
TAFPLN
TAF
KPLN 252324Z 2600/2624 VRB03KT P6SM SKC
     FM260400 00000KT 3SM BR SKC
      TEMPO 2606/2610 1/2SM FG
     FM261300 20005KT P6SM FEW040
     FM261800 23008KT P6SM SCT050 BKN200=

USA.gov is the U.S. government's official web portal to all federal, state and local government web resources and services.